createdAt,value
2018-04-15T00:00:49.053Z,75.85
2018-04-15T00:01:49.081Z,75.85
2018-04-15T00:02:49.074Z,75.66
2018-04-15T00:03:49.092Z,75.95
2018-04-15T00:04:49.119Z,76.14
2018-04-15T00:05:49.119Z,75.76
2018-04-15T00:06:49.113Z,76.33
2018-04-15T00:07:49.136Z,76.52
2018-04-15T00:08:49.151Z,76.42
2018-04-15T00:09:49.149Z,75.85
2018-04-15T00:10:49.168Z,76.52
2018-04-15T00:11:49.164Z,75.85
2018-04-15T00:12:49.195Z,75.56
2018-04-15T00:13:49.213Z,76.14
2018-04-15T00:14:49.191Z,75.95
2018-04-15T00:15:49.218Z,75.81
2018-04-15T00:16:49.217Z,75.95
2018-04-15T00:17:49.228Z,75.81
2018-04-15T00:18:49.267Z,75.52
2018-04-15T00:19:49.271Z,76.00
2018-04-15T00:20:49.344Z,75.62
2018-04-15T00:21:49.280Z,74.85
2018-04-15T00:22:49.277Z,74.76
2018-04-15T00:23:49.299Z,74.85
2018-04-15T00:24:49.337Z,75.91
2018-04-15T00:25:49.330Z,75.62
2018-04-15T00:26:49.337Z,75.71
2018-04-15T00:27:49.341Z,75.62
2018-04-15T00:28:49.356Z,75.78
2018-04-15T00:29:49.350Z,75.59
2018-04-15T00:30:49.413Z,75.49
2018-04-15T00:31:49.378Z,75.59
2018-04-15T00:32:49.384Z,75.87
2018-04-15T00:33:49.409Z,75.59
2018-04-15T00:34:49.420Z,75.68
2018-04-15T00:35:49.448Z,75.49
2018-04-15T00:36:49.434Z,75.87
2018-04-15T00:37:49.436Z,75.78
2018-04-15T00:38:49.461Z,75.68
2018-04-15T00:39:49.458Z,76.64
2018-04-15T00:40:49.506Z,75.96
2018-04-15T00:41:49.492Z,75.93
2018-04-15T00:42:49.488Z,76.25
2018-04-15T00:43:49.508Z,76.82
2018-04-15T00:44:49.519Z,77.11
2018-04-15T00:45:49.686Z,76.64
2018-04-15T00:46:49.523Z,76.54
2018-04-15T00:47:49.546Z,76.60
2018-04-15T00:48:49.558Z,76.73
2018-04-15T00:49:49.565Z,76.50
2018-04-15T00:50:49.709Z,77.40
2018-04-15T00:51:49.606Z,77.45
2018-04-15T00:52:49.599Z,76.64
2018-04-15T00:53:49.621Z,76.35
2018-04-15T00:54:49.620Z,76.88
2018-04-15T00:55:49.628Z,76.73
2018-04-15T00:56:49.655Z,76.45
2018-04-15T00:57:49.668Z,75.87
2018-04-15T00:58:49.651Z,75.78
2018-04-15T00:59:49.683Z,76.45
2018-04-15T01:00:50.552Z,76.50
2018-04-15T01:01:49.695Z,76.54
2018-04-15T01:02:49.741Z,76.50
2018-04-15T01:03:49.708Z,76.79
2018-04-15T01:04:49.720Z,76.12
2018-04-15T01:05:49.731Z,76.45
2018-04-15T01:06:49.754Z,75.74
2018-04-15T01:07:49.790Z,76.03
2018-04-15T01:08:49.767Z,76.12
2018-04-15T01:09:49.757Z,75.83
2018-04-15T01:10:49.849Z,76.40
2018-04-15T01:11:49.798Z,75.83
2018-04-15T01:12:49.836Z,76.31
2018-04-15T01:13:49.793Z,76.88
2018-04-15T01:14:49.850Z,76.31
2018-04-15T01:15:49.840Z,76.40
2018-04-15T01:16:49.845Z,75.74
2018-04-15T01:17:49.905Z,76.79
2018-04-15T01:18:49.858Z,76.69
2018-04-15T01:19:49.871Z,77.08
2018-04-15T01:20:49.877Z,76.79
2018-04-15T01:21:49.891Z,76.31
2018-04-15T01:22:49.887Z,76.40
2018-04-15T01:23:49.937Z,76.40
2018-04-15T01:24:49.918Z,76.31
2018-04-15T01:25:49.925Z,76.50
2018-04-15T01:26:49.929Z,76.60
2018-04-15T01:27:49.944Z,76.60
2018-04-15T01:28:50.001Z,76.40
2018-04-15T01:29:49.963Z,76.50
2018-04-15T01:30:50.002Z,76.69
2018-04-15T01:31:49.984Z,76.21
2018-04-15T01:32:50.014Z,76.88
2018-04-15T01:33:50.031Z,77.08
2018-04-15T01:34:50.010Z,76.79
2018-04-15T01:35:50.023Z,76.79
2018-04-15T01:36:50.043Z,76.60
2018-04-15T01:37:50.038Z,76.98
2018-04-15T01:38:50.084Z,77.17
2018-04-15T01:39:50.128Z,76.40
2018-04-15T01:40:50.085Z,76.40
2018-04-15T01:41:50.078Z,76.31
2018-04-15T01:42:50.087Z,76.50
2018-04-15T01:43:50.101Z,76.69
2018-04-15T01:44:50.112Z,76.21
2018-04-15T01:45:50.164Z,76.50
2018-04-15T01:46:50.123Z,76.50
2018-04-15T01:47:50.151Z,76.79
2018-04-15T01:48:50.180Z,76.79
2018-04-15T01:49:50.163Z,76.50
2018-04-15T01:50:50.202Z,76.21
2018-04-15T01:51:50.181Z,76.50
2018-04-15T01:52:50.206Z,76.40
2018-04-15T01:53:50.195Z,76.60
2018-04-15T01:54:50.215Z,76.79
2018-04-15T01:55:50.227Z,76.50
2018-04-15T01:56:50.238Z,76.40
2018-04-15T01:57:50.297Z,77.08
2018-04-15T01:58:50.254Z,77.17
2018-04-15T01:59:50.257Z,77.45
2018-04-15T02:00:50.271Z,76.98
2018-04-15T02:01:50.286Z,77.45
2018-04-15T02:02:50.308Z,77.08
2018-04-15T02:03:50.298Z,76.56
2018-04-15T02:04:50.345Z,77.08
2018-04-15T02:05:50.336Z,77.17
2018-04-15T02:06:50.330Z,77.26
2018-04-15T02:07:50.337Z,77.26
2018-04-15T02:08:50.358Z,77.17
2018-04-15T02:09:50.375Z,76.60
2018-04-15T02:10:50.390Z,77.45
2018-04-15T02:11:50.376Z,77.08
2018-04-15T02:12:50.406Z,77.17
2018-04-15T02:13:50.400Z,77.45
2018-04-15T02:14:50.414Z,76.69
2018-04-15T02:15:50.441Z,77.26
2018-04-15T02:16:50.465Z,76.98
2018-04-15T02:17:50.433Z,77.65
2018-04-15T02:18:50.464Z,77.08
2018-04-15T02:19:50.481Z,77.13
2018-04-15T02:20:50.461Z,76.94
2018-04-15T02:21:50.513Z,76.98
2018-04-15T02:22:50.503Z,77.26
2018-04-15T02:23:50.516Z,77.08
2018-04-15T02:24:50.511Z,77.51
2018-04-15T02:25:50.529Z,77.32
2018-04-15T02:26:50.561Z,77.45
2018-04-15T02:27:50.592Z,77.13
2018-04-15T02:28:50.553Z,77.03
2018-04-15T02:29:50.557Z,77.36
2018-04-15T02:30:50.586Z,78.03
2018-04-15T02:31:50.579Z,77.55
2018-04-15T02:32:50.647Z,77.65
2018-04-15T02:33:50.603Z,77.32
2018-04-15T02:34:50.631Z,77.55
2018-04-15T02:35:50.615Z,77.13
2018-04-15T02:36:50.625Z,77.26
2018-04-15T02:37:50.653Z,77.26
2018-04-15T02:38:50.683Z,77.26
2018-04-15T02:39:50.682Z,77.08
2018-04-15T02:40:50.680Z,77.32
2018-04-15T02:41:50.687Z,77.32
2018-04-15T02:42:50.683Z,77.99
2018-04-15T02:43:50.727Z,77.89
2018-04-15T02:44:50.741Z,78.18
2018-04-15T02:45:50.725Z,77.70
2018-04-15T02:46:50.733Z,77.99
2018-04-15T02:47:50.731Z,78.28
2018-04-15T02:48:50.742Z,77.89
2018-04-15T02:49:50.790Z,77.89
2018-04-15T02:50:50.812Z,78.09
2018-04-15T02:51:50.781Z,77.80
2018-04-15T02:52:50.815Z,77.99
2018-04-15T02:53:50.788Z,77.99
2018-04-15T02:54:50.811Z,77.99
2018-04-15T02:55:50.857Z,77.70
2018-04-15T02:56:50.835Z,77.89
2018-04-15T02:57:50.835Z,77.89
2018-04-15T02:58:50.841Z,78.47
2018-04-15T02:59:50.883Z,78.75
2018-04-15T03:00:51.028Z,79.14
2018-04-15T03:01:50.860Z,79.04
2018-04-15T03:02:50.887Z,79.99
2018-04-15T03:03:50.914Z,79.33
2018-04-15T03:04:50.911Z,79.28
2018-04-15T03:05:50.917Z,79.80
2018-04-15T03:06:50.978Z,78.94
2018-04-15T03:07:50.937Z,79.14
2018-04-15T03:08:50.935Z,79.04
2018-04-15T03:09:50.953Z,79.04
2018-04-15T03:10:50.951Z,79.14
2018-04-15T03:11:50.966Z,79.96
2018-04-15T03:12:51.020Z,80.15
2018-04-15T03:13:50.995Z,80.15
2018-04-15T03:14:51.002Z,80.43
2018-04-15T03:15:51.017Z,80.62
2018-04-15T03:16:51.058Z,80.09
2018-04-15T03:17:51.054Z,79.52
2018-04-15T03:18:51.184Z,79.99
2018-04-15T03:19:51.051Z,79.71
2018-04-15T03:20:51.050Z,79.43
2018-04-15T03:21:51.079Z,79.80
2018-04-15T03:22:51.077Z,79.61
2018-04-15T03:23:51.098Z,79.80
2018-04-15T03:24:51.119Z,79.80
2018-04-15T03:25:51.118Z,79.61
2018-04-15T03:26:51.106Z,79.71
2018-04-15T03:27:51.170Z,79.99
2018-04-15T03:28:51.141Z,79.90
2018-04-15T03:29:51.141Z,79.90
2018-04-15T03:30:51.143Z,79.23
2018-04-15T03:31:51.168Z,78.94
2018-04-15T03:32:51.175Z,79.23
2018-04-15T03:33:51.218Z,79.04
2018-04-15T03:34:51.189Z,79.17
2018-04-15T03:35:51.197Z,79.14
2018-04-15T03:36:51.213Z,79.23
2018-04-15T03:37:51.210Z,79.33
2018-04-15T03:38:51.280Z,78.85
2018-04-15T03:39:51.251Z,78.85
2018-04-15T03:40:51.239Z,79.43
2018-04-15T03:41:51.253Z,79.14
2018-04-15T03:42:51.266Z,78.94
2018-04-15T03:43:51.378Z,79.71
2018-04-15T03:44:51.310Z,79.61
2018-04-15T03:45:51.294Z,79.99
2018-04-15T03:46:51.328Z,79.23
2018-04-15T03:47:51.345Z,79.90
2018-04-15T03:48:51.321Z,79.90
2018-04-15T03:49:51.340Z,79.80
2018-04-15T03:50:51.385Z,79.14
2018-04-15T03:51:51.353Z,79.90
2018-04-15T03:52:51.411Z,80.13
2018-04-15T03:53:51.374Z,79.80
2018-04-15T03:54:51.381Z,79.61
2018-04-15T03:55:51.399Z,79.17
2018-04-15T03:56:51.409Z,78.89
2018-04-15T03:57:51.471Z,79.14
2018-04-15T03:58:51.415Z,78.85
2018-04-15T03:59:51.462Z,79.80
2018-04-15T04:00:51.436Z,79.04
2018-04-15T04:01:51.465Z,79.23
2018-04-15T04:02:51.490Z,79.23
2018-04-15T04:03:51.504Z,79.80
2018-04-15T04:04:51.544Z,79.61
2018-04-15T04:05:51.529Z,79.52
2018-04-15T04:06:51.516Z,79.61
2018-04-15T04:07:51.518Z,79.80
2018-04-15T04:08:51.559Z,79.52
2018-04-15T04:09:51.534Z,79.23
2018-04-15T04:10:51.558Z,79.04
2018-04-15T04:11:51.555Z,79.90
2018-04-15T04:12:51.577Z,79.14
2018-04-15T04:13:51.570Z,78.94
2018-04-15T04:14:51.609Z,79.90
2018-04-15T04:15:51.605Z,78.94
2018-04-15T04:16:51.601Z,79.71
2018-04-15T04:17:51.609Z,79.99
2018-04-15T04:18:51.615Z,78.94
2018-04-15T04:19:51.680Z,79.52
2018-04-15T04:20:51.638Z,79.71
2018-04-15T04:21:51.646Z,79.04
2018-04-15T04:22:51.646Z,79.23
2018-04-15T04:23:51.668Z,79.61
2018-04-15T04:24:51.741Z,79.90
2018-04-15T04:25:51.686Z,79.61
2018-04-15T04:26:51.696Z,79.61
2018-04-15T04:27:51.711Z,79.96
2018-04-15T04:28:51.725Z,79.80
2018-04-15T04:29:51.764Z,80.43
2018-04-15T04:30:51.753Z,79.99
2018-04-15T04:31:51.744Z,80.28
2018-04-15T04:32:51.753Z,79.90
2018-04-15T04:33:51.765Z,80.09
2018-04-15T04:34:51.837Z,80.66
2018-04-15T04:35:51.787Z,80.15
2018-04-15T04:36:51.801Z,80.91
2018-04-15T04:37:51.825Z,81.01
2018-04-15T04:38:51.816Z,81.10
2018-04-15T04:39:51.863Z,80.95
2018-04-15T04:40:51.825Z,80.28
2018-04-15T04:41:51.832Z,81.14
2018-04-15T04:42:51.858Z,80.15
2018-04-15T04:43:51.855Z,80.09
2018-04-15T04:44:51.941Z,80.95
2018-04-15T04:45:51.904Z,80.85
2018-04-15T04:46:51.882Z,81.01
2018-04-15T04:47:51.927Z,81.38
2018-04-15T04:48:51.924Z,80.09
2018-04-15T04:49:51.926Z,81.33
2018-04-15T04:50:51.974Z,81.04
2018-04-15T04:51:51.948Z,80.09
2018-04-15T04:52:51.952Z,81.33
2018-04-15T04:53:51.968Z,80.38
2018-04-15T04:54:51.977Z,80.66
2018-04-15T04:55:52.018Z,80.66
2018-04-15T04:56:51.991Z,80.47
2018-04-15T04:57:51.994Z,80.66
2018-04-15T04:58:51.996Z,80.28
2018-04-15T04:59:52.026Z,81.14
2018-04-15T05:00:52.066Z,80.38
2018-04-15T05:01:52.079Z,79.71
2018-04-15T05:02:52.043Z,80.57
2018-04-15T05:03:52.064Z,80.19
2018-04-15T05:04:52.077Z,79.52
2018-04-15T05:05:52.090Z,79.61
2018-04-15T05:06:52.107Z,79.80
2018-04-15T05:07:52.159Z,79.90
2018-04-15T05:08:52.101Z,79.99
2018-04-15T05:09:52.117Z,79.52
2018-04-15T05:10:52.162Z,79.71
2018-04-15T05:11:52.137Z,80.09
2018-04-15T05:12:52.178Z,79.52
2018-04-15T05:13:52.147Z,79.46
2018-04-15T05:14:52.161Z,79.52
2018-04-15T05:15:52.161Z,79.08
2018-04-15T05:16:52.171Z,79.36
2018-04-15T05:17:52.222Z,79.33
2018-04-15T05:18:52.244Z,79.27
2018-04-15T05:19:52.247Z,79.04
2018-04-15T05:20:52.259Z,78.94
2018-04-15T05:21:52.229Z,79.04
2018-04-15T05:22:52.235Z,79.43
2018-04-15T05:23:52.279Z,79.14
2018-04-15T05:24:52.312Z,79.85
2018-04-15T05:25:52.267Z,79.85
2018-04-15T05:26:52.272Z,79.27
2018-04-15T05:27:52.299Z,79.17
2018-04-15T05:28:52.300Z,79.08
2018-04-15T05:29:52.313Z,78.89
2018-04-15T05:30:52.358Z,79.36
2018-04-15T05:31:52.316Z,78.89
2018-04-15T05:32:52.339Z,78.60
2018-04-15T05:33:52.342Z,78.89
2018-04-15T05:34:52.498Z,78.70
2018-04-15T05:35:52.376Z,78.60
2018-04-15T05:36:52.377Z,78.51
2018-04-15T05:37:52.387Z,78.51
2018-04-15T05:38:52.421Z,78.89
2018-04-15T05:39:52.428Z,78.31
2018-04-15T05:40:52.455Z,78.60
2018-04-15T05:41:52.480Z,78.70
2018-04-15T05:42:52.443Z,78.74
2018-04-15T05:43:52.458Z,78.03
2018-04-15T05:44:52.452Z,78.26
2018-04-15T05:45:52.472Z,78.16
2018-04-15T05:46:52.500Z,77.78
2018-04-15T05:47:52.485Z,77.97
2018-04-15T05:48:52.491Z,77.50
2018-04-15T05:49:52.499Z,77.30
2018-04-15T05:50:52.554Z,77.11
2018-04-15T05:51:52.525Z,77.50
2018-04-15T05:52:52.556Z,77.69
2018-04-15T05:53:52.622Z,77.59
2018-04-15T05:54:52.561Z,77.69
2018-04-15T05:55:52.592Z,77.59
2018-04-15T05:56:52.593Z,77.11
2018-04-15T05:57:52.604Z,77.11
2018-04-15T05:58:52.603Z,77.63
2018-04-15T05:59:52.611Z,77.15
2018-04-15T06:00:52.644Z,77.06
2018-04-15T06:01:52.619Z,76.77
2018-04-15T06:02:52.636Z,76.67
2018-04-15T06:03:52.650Z,76.67
2018-04-15T06:04:52.707Z,76.77
2018-04-15T06:05:52.672Z,76.39
2018-04-15T06:06:52.697Z,76.10
2018-04-15T06:07:52.687Z,76.39
2018-04-15T06:08:52.743Z,75.62
2018-04-15T06:09:52.757Z,75.34
2018-04-15T06:10:52.725Z,75.91
2018-04-15T06:11:52.733Z,75.52
2018-04-15T06:12:52.745Z,74.85
2018-04-15T06:13:52.747Z,74.48
2018-04-15T06:14:52.813Z,74.66
2018-04-15T06:15:52.765Z,75.05
2018-04-15T06:16:52.830Z,75.34
2018-04-15T06:17:52.785Z,74.19
2018-04-15T06:18:52.797Z,74.66
2018-04-15T06:19:52.825Z,74.38
2018-04-15T06:20:52.862Z,74.66
2018-04-15T06:21:52.850Z,74.38
2018-04-15T06:22:52.852Z,74.41
2018-04-15T06:23:52.879Z,74.13
2018-04-15T06:24:52.860Z,74.04
2018-04-15T06:25:52.899Z,74.32
2018-04-15T06:26:52.929Z,73.94
2018-04-15T06:27:52.904Z,73.36
2018-04-15T06:28:52.910Z,73.46
2018-04-15T06:29:52.920Z,73.27
2018-04-15T06:30:52.951Z,74.04
2018-04-15T06:31:52.975Z,73.46
2018-04-15T06:32:52.992Z,73.46
2018-04-15T06:33:52.989Z,73.50
2018-04-15T06:34:53.006Z,73.36
2018-04-15T06:35:52.981Z,72.60
2018-04-15T06:36:53.015Z,72.31
2018-04-15T06:37:53.042Z,72.79
2018-04-15T06:38:53.048Z,73.02
2018-04-15T06:39:53.071Z,72.83
2018-04-15T06:40:53.048Z,72.92
2018-04-15T06:41:53.100Z,73.11
2018-04-15T06:42:53.054Z,72.63
2018-04-15T06:43:53.075Z,72.73
2018-04-15T06:44:53.132Z,72.92
2018-04-15T06:45:53.090Z,73.11
2018-04-15T06:46:53.105Z,72.63
2018-04-15T06:47:53.124Z,72.44
2018-04-15T06:48:53.143Z,71.97
2018-04-15T06:49:53.166Z,72.06
2018-04-15T06:50:53.142Z,72.34
2018-04-15T06:51:53.184Z,72.73
2018-04-15T06:52:53.204Z,72.44
2018-04-15T06:53:53.187Z,72.73
2018-04-15T06:54:53.196Z,72.63
2018-04-15T06:55:53.206Z,72.25
2018-04-15T06:56:53.244Z,72.25
2018-04-15T06:57:53.269Z,71.77
2018-04-15T06:58:53.244Z,71.48
2018-04-15T06:59:53.267Z,71.87
2018-04-15T07:00:53.278Z,71.48
2018-04-15T07:01:53.265Z,71.87
2018-04-15T07:02:53.301Z,71.87
2018-04-15T07:03:53.313Z,70.91
2018-04-15T07:04:53.311Z,70.91
2018-04-15T07:05:53.331Z,70.95
2018-04-15T07:06:53.321Z,71.33
2018-04-15T07:07:53.364Z,70.85
2018-04-15T07:08:53.339Z,71.42
2018-04-15T07:09:53.371Z,70.85
2018-04-15T07:10:53.424Z,70.95
2018-04-15T07:11:53.429Z,70.56
2018-04-15T07:12:53.420Z,70.66
2018-04-15T07:13:53.442Z,70.09
2018-04-15T07:14:53.449Z,70.47
2018-04-15T07:15:53.430Z,70.56
2018-04-15T07:16:53.430Z,69.70
2018-04-15T07:17:53.457Z,69.51
2018-04-15T07:18:53.491Z,70.37
2018-04-15T07:19:53.467Z,69.70
2018-04-15T07:20:53.495Z,69.45
2018-04-15T07:21:53.525Z,69.60
2018-04-15T07:22:53.519Z,69.26
2018-04-15T07:23:53.564Z,69.83
2018-04-15T07:24:53.540Z,68.68
2018-04-15T07:25:53.561Z,68.97
2018-04-15T07:26:53.599Z,68.21
2018-04-15T07:27:53.558Z,68.21
2018-04-15T07:28:53.633Z,68.30
2018-04-15T07:29:53.591Z,68.49
2018-04-15T07:30:53.604Z,68.01
2018-04-15T07:31:53.617Z,67.82
2018-04-15T07:32:53.649Z,67.54
2018-04-15T07:33:53.644Z,67.54
2018-04-15T07:34:53.687Z,67.54
2018-04-15T07:35:53.672Z,66.48
2018-04-15T07:36:53.703Z,67.25
2018-04-15T07:37:53.680Z,66.77
2018-04-15T07:38:53.700Z,67.72
2018-04-15T07:39:53.726Z,67.76
2018-04-15T07:40:53.759Z,67.82
2018-04-15T07:41:53.719Z,67.57
2018-04-15T07:42:53.736Z,67.09
2018-04-15T07:43:53.769Z,66.22
2018-04-15T07:44:53.785Z,66.71
2018-04-15T07:45:53.781Z,67.18
2018-04-15T07:46:53.795Z,67.95
2018-04-15T07:47:53.873Z,66.51
2018-04-15T07:48:53.804Z,66.99
2018-04-15T07:49:53.829Z,66.71
2018-04-15T07:50:53.829Z,66.22
2018-04-15T07:51:53.859Z,65.55
2018-04-15T07:52:53.908Z,66.42
2018-04-15T07:53:53.874Z,65.46
2018-04-15T07:54:53.895Z,64.69
2018-04-15T07:55:53.894Z,65.08
2018-04-15T07:56:53.910Z,64.92
2018-04-15T07:57:54.003Z,65.17
2018-04-15T07:58:53.957Z,64.98
2018-04-15T07:59:53.983Z,65.36
2018-04-15T08:00:53.977Z,65.49
2018-04-15T08:01:53.960Z,65.30
2018-04-15T08:02:54.001Z,65.20
2018-04-15T08:03:53.992Z,64.82
2018-04-15T08:04:53.999Z,64.92
2018-04-15T08:05:54.026Z,65.20
2018-04-15T08:06:54.068Z,65.49
2018-04-15T08:07:54.035Z,65.59
2018-04-15T08:08:54.063Z,65.20
2018-04-15T08:09:54.105Z,64.72
2018-04-15T08:10:54.086Z,65.01
2018-04-15T08:11:54.123Z,64.92
2018-04-15T08:12:54.096Z,65.01
2018-04-15T08:13:54.151Z,65.01
2018-04-15T08:14:54.126Z,64.92
2018-04-15T08:15:54.144Z,65.11
2018-04-15T08:16:54.157Z,64.25
2018-04-15T08:17:54.155Z,65.43
2018-04-15T08:18:54.227Z,64.05
2018-04-15T08:19:54.183Z,64.28
2018-04-15T08:20:54.221Z,64.25
2018-04-15T08:21:54.205Z,64.34
2018-04-15T08:22:54.229Z,64.37
2018-04-15T08:23:54.254Z,64.47
2018-04-15T08:24:54.267Z,64.28
2018-04-15T08:25:54.312Z,64.28
2018-04-15T08:26:54.320Z,65.14
2018-04-15T08:27:54.338Z,64.95
2018-04-15T08:28:54.303Z,64.18
2018-04-15T08:29:54.433Z,63.32
2018-04-15T08:30:54.322Z,63.32
2018-04-15T08:31:54.356Z,63.03
2018-04-15T08:32:54.376Z,62.84
2018-04-15T08:33:54.365Z,63.12
2018-04-15T08:34:54.368Z,63.32
2018-04-15T08:35:54.404Z,62.93
2018-04-15T08:36:54.386Z,63.51
2018-04-15T08:37:54.444Z,63.42
2018-04-15T08:38:54.421Z,63.12
2018-04-15T08:39:54.425Z,62.65
2018-04-15T08:40:54.443Z,63.60
2018-04-15T08:41:54.463Z,62.45
2018-04-15T08:42:54.517Z,63.12
2018-04-15T08:43:54.485Z,63.12
2018-04-15T08:44:54.499Z,62.84
2018-04-15T08:45:54.507Z,62.93
2018-04-15T08:46:54.523Z,63.99
2018-04-15T08:47:54.568Z,63.12
2018-04-15T08:48:54.542Z,62.65
2018-04-15T08:49:54.576Z,62.77
2018-04-15T08:50:54.652Z,62.36
2018-04-15T08:51:54.601Z,62.58
2018-04-15T08:52:54.665Z,62.48
2018-04-15T08:53:54.637Z,62.48
2018-04-15T08:54:54.607Z,62.39
2018-04-15T08:55:54.634Z,63.54
2018-04-15T08:56:54.718Z,62.19
2018-04-15T08:57:54.779Z,62.19
2018-04-15T08:58:54.687Z,62.39
2018-04-15T08:59:54.681Z,62.19
2018-04-15T09:00:54.700Z,62.10
2018-04-15T09:01:54.733Z,62.19
2018-04-15T09:02:54.726Z,62.39
2018-04-15T09:03:54.719Z,62.48
2018-04-15T09:04:54.756Z,63.16
2018-04-15T09:05:54.744Z,62.48
2018-04-15T09:06:54.798Z,62.01
2018-04-15T09:07:54.798Z,61.52
2018-04-15T09:08:54.789Z,61.43
2018-04-15T09:09:54.815Z,61.52
2018-04-15T09:10:54.813Z,62.01
2018-04-15T09:11:54.863Z,62.48
2018-04-15T09:12:54.850Z,61.81
2018-04-15T09:13:54.864Z,61.43
2018-04-15T09:14:54.878Z,61.14
2018-04-15T09:15:54.892Z,61.17
2018-04-15T09:16:54.947Z,60.69
2018-04-15T09:17:55.024Z,61.17
2018-04-15T09:18:54.989Z,60.40
2018-04-15T09:19:54.938Z,60.69
2018-04-15T09:20:54.952Z,60.60
2018-04-15T09:21:54.948Z,60.98
2018-04-15T09:22:54.982Z,60.11
2018-04-15T09:23:55.066Z,60.11
2018-04-15T09:24:55.023Z,59.83
2018-04-15T09:25:55.042Z,59.44
2018-04-15T09:26:55.022Z,59.92
2018-04-15T09:27:55.041Z,60.69
2018-04-15T09:28:55.062Z,60.50
2018-04-15T09:29:55.113Z,60.40
2018-04-15T09:30:55.080Z,61.27
2018-04-15T09:31:55.077Z,60.11
2018-04-15T09:32:55.092Z,60.11
2018-04-15T09:33:55.112Z,59.92
2018-04-15T09:34:55.170Z,60.11
2018-04-15T09:35:55.147Z,60.11
2018-04-15T09:36:55.230Z,59.83
2018-04-15T09:37:55.164Z,60.40
2018-04-15T09:38:55.194Z,59.83
2018-04-15T09:39:55.188Z,60.21
2018-04-15T09:40:55.195Z,59.73
2018-04-15T09:41:55.273Z,59.73
2018-04-15T09:42:55.218Z,60.11
2018-04-15T09:43:55.248Z,60.40
2018-04-15T09:44:55.267Z,60.21
2018-04-15T09:45:55.275Z,59.25
2018-04-15T09:46:55.347Z,59.16
2018-04-15T09:47:55.330Z,59.83
2018-04-15T09:48:55.492Z,59.47
2018-04-15T09:49:55.317Z,60.24
2018-04-15T09:50:55.330Z,59.38
2018-04-15T09:51:55.378Z,58.89
2018-04-15T09:52:55.363Z,58.42
2018-04-15T09:53:55.384Z,58.99
2018-04-15T09:54:55.499Z,59.66
2018-04-15T09:55:55.439Z,59.76
2018-04-15T09:56:55.427Z,58.51
2018-04-15T09:57:55.429Z,58.89
2018-04-15T09:58:55.428Z,58.70
2018-04-15T09:59:55.442Z,58.80
2018-04-15T10:00:55.496Z,57.75
2018-04-15T10:01:55.470Z,57.84
2018-04-15T10:02:55.489Z,57.65
2018-04-15T10:03:55.499Z,57.65
2018-04-15T10:04:55.535Z,57.36
2018-04-15T10:05:55.564Z,57.39
2018-04-15T10:06:55.537Z,57.87
2018-04-15T10:07:55.542Z,57.87
2018-04-15T10:08:55.565Z,57.48
2018-04-15T10:09:55.600Z,57.97
2018-04-15T10:10:55.669Z,56.81
2018-04-15T10:11:55.619Z,56.52
2018-04-15T10:12:55.609Z,57.10
2018-04-15T10:13:55.643Z,56.43
2018-04-15T10:14:55.682Z,56.33
2018-04-15T10:15:55.708Z,56.33
2018-04-15T10:16:55.721Z,55.94
2018-04-15T10:17:55.696Z,56.04
2018-04-15T10:18:55.721Z,55.85
2018-04-15T10:19:55.703Z,55.56
2018-04-15T10:20:55.855Z,54.69
2018-04-15T10:21:55.793Z,55.27
2018-04-15T10:22:55.762Z,54.79
2018-04-15T10:23:55.836Z,54.63
2018-04-15T10:24:55.780Z,54.82
2018-04-15T10:25:55.821Z,54.72
2018-04-15T10:26:55.808Z,55.20
2018-04-15T10:27:55.843Z,55.68
2018-04-15T10:28:55.816Z,54.91
2018-04-15T10:29:55.873Z,55.20
2018-04-15T10:30:55.916Z,54.53
2018-04-15T10:31:55.869Z,53.47
2018-04-15T10:32:55.885Z,53.47
2018-04-15T10:33:55.920Z,53.38
2018-04-15T10:34:55.964Z,53.47
2018-04-15T10:35:55.949Z,53.66
2018-04-15T10:36:55.929Z,54.24
2018-04-15T10:37:55.954Z,53.28
2018-04-15T10:38:55.980Z,53.47
2018-04-15T10:39:56.016Z,53.28
2018-04-15T10:40:55.987Z,53.76
2018-04-15T10:41:56.014Z,53.66
2018-04-15T10:42:56.061Z,52.99
2018-04-15T10:43:56.042Z,54.05
2018-04-15T10:44:56.073Z,53.96
2018-04-15T10:45:56.072Z,53.96
2018-04-15T10:46:56.104Z,53.31
2018-04-15T10:47:56.102Z,53.98
2018-04-15T10:48:56.117Z,53.98
2018-04-15T10:49:56.148Z,53.50
2018-04-15T10:50:56.196Z,53.78
2018-04-15T10:51:56.200Z,52.25
2018-04-15T10:52:56.145Z,52.73
2018-04-15T10:53:56.196Z,53.02
2018-04-15T10:54:56.188Z,53.11
2018-04-15T10:55:56.188Z,52.54
2018-04-15T10:56:56.245Z,51.76
2018-04-15T10:57:56.220Z,51.19
2018-04-15T10:58:56.239Z,51.38
2018-04-15T10:59:56.303Z,51.48
2018-04-15T11:00:56.291Z,51.48
2018-04-15T11:01:56.350Z,51.38
2018-04-15T11:02:56.298Z,51.48
2018-04-15T11:03:56.312Z,51.86
2018-04-15T11:04:56.342Z,51.38
2018-04-15T11:05:56.338Z,50.23
2018-04-15T11:06:56.424Z,50.42
2018-04-15T11:07:56.361Z,50.71
2018-04-15T11:08:56.388Z,50.13
2018-04-15T11:09:56.380Z,50.99
2018-04-15T11:10:56.406Z,50.61
2018-04-15T11:11:56.469Z,50.23
2018-04-15T11:12:56.433Z,50.04
2018-04-15T11:13:56.505Z,50.04
2018-04-15T11:14:56.460Z,50.83
2018-04-15T11:15:56.504Z,50.15
2018-04-15T11:16:56.524Z,50.83
2018-04-15T11:17:56.504Z,50.25
2018-04-15T11:18:56.577Z,49.68
2018-04-15T11:19:56.522Z,49.87
2018-04-15T11:20:56.541Z,49.38
2018-04-15T11:21:56.560Z,47.08
2018-04-15T11:22:56.593Z,46.59
2018-04-15T11:23:56.638Z,46.11
2018-04-15T11:24:56.593Z,46.59
2018-04-15T11:25:56.632Z,45.15
2018-04-15T11:26:56.649Z,45.53
2018-04-15T11:27:56.686Z,45.63
2018-04-15T11:28:56.726Z,46.50
2018-04-15T11:29:56.672Z,46.31
2018-04-15T11:30:56.710Z,46.11
2018-04-15T11:31:56.723Z,45.73
2018-04-15T11:32:56.728Z,45.44
2018-04-15T11:33:56.766Z,44.96
2018-04-15T11:34:56.753Z,43.90
2018-04-15T11:35:56.747Z,43.90
2018-04-15T11:36:56.829Z,43.90
2018-04-15T11:37:56.822Z,44.28
2018-04-15T11:38:56.801Z,44.09
2018-04-15T11:39:56.811Z,44.19
2018-04-15T11:40:56.829Z,44.28
2018-04-15T11:41:56.898Z,44.09
2018-04-15T11:42:56.855Z,44.40
2018-04-15T11:43:56.872Z,43.90
2018-04-15T11:44:56.893Z,43.92
2018-04-15T11:45:56.905Z,43.92
2018-04-15T11:46:56.932Z,43.44
2018-04-15T11:47:56.959Z,42.65
2018-04-15T11:48:56.936Z,43.82
2018-04-15T11:49:56.986Z,43.73
2018-04-15T11:50:56.969Z,43.92
2018-04-15T11:51:56.991Z,44.98
2018-04-15T11:52:57.049Z,44.89
2018-04-15T11:53:57.027Z,44.98
2018-04-15T11:54:57.117Z,45.17
2018-04-15T11:55:57.075Z,45.17
2018-04-15T11:56:57.086Z,44.89
2018-04-15T11:57:57.071Z,44.89
2018-04-15T11:58:57.176Z,44.02
2018-04-15T11:59:57.126Z,44.02
2018-04-15T12:00:57.184Z,44.40
2018-04-15T12:01:57.164Z,44.02
2018-04-15T12:02:57.159Z,44.11
2018-04-15T12:03:57.192Z,45.17
2018-04-15T12:04:57.157Z,45.17
2018-04-15T12:05:57.217Z,45.65
2018-04-15T12:06:57.235Z,45.65
2018-04-15T12:07:57.224Z,45.75
2018-04-15T12:08:57.216Z,46.04
2018-04-15T12:09:57.242Z,45.84
2018-04-15T12:10:57.249Z,45.27
2018-04-15T12:11:57.317Z,45.17
2018-04-15T12:12:57.311Z,44.02
2018-04-15T12:13:57.299Z,43.73
2018-04-15T12:14:57.327Z,44.89
2018-04-15T12:15:57.332Z,43.73
2018-04-15T12:16:57.339Z,43.44
2018-04-15T12:17:57.380Z,43.24
2018-04-15T12:18:58.481Z,44.04
2018-04-15T12:19:57.386Z,45.20
2018-04-15T12:20:57.446Z,45.39
2018-04-15T12:21:57.438Z,44.71
2018-04-15T12:22:57.483Z,45.58
2018-04-15T12:23:57.445Z,45.48
2018-04-15T12:24:57.506Z,45.20
2018-04-15T12:25:57.504Z,45.29
2018-04-15T12:26:57.545Z,45.10
2018-04-15T12:27:57.527Z,44.42
2018-04-15T12:28:57.573Z,43.94
2018-04-15T12:29:57.548Z,43.85
2018-04-15T12:30:57.608Z,44.32
2018-04-15T12:31:57.591Z,44.04
2018-04-15T12:32:57.560Z,43.46
2018-04-15T12:33:57.619Z,44.13
2018-04-15T12:34:57.619Z,43.46
2018-04-15T12:35:57.641Z,43.46
2018-04-15T12:36:57.641Z,42.69
2018-04-15T12:37:57.678Z,41.92
2018-04-15T12:38:57.702Z,42.02
2018-04-15T12:39:57.677Z,42.21
2018-04-15T12:40:57.705Z,41.92
2018-04-15T12:41:57.802Z,42.49
2018-04-15T12:42:57.719Z,42.71
2018-04-15T12:43:57.792Z,41.94
2018-04-15T12:44:57.749Z,40.88
2018-04-15T12:45:57.755Z,39.03
2018-04-15T12:46:57.793Z,40.11
2018-04-15T12:47:57.851Z,40.39
2018-04-15T12:48:57.870Z,40.78
2018-04-15T12:49:57.818Z,40.01
2018-04-15T12:50:57.843Z,39.43
2018-04-15T12:51:57.855Z,39.72
2018-04-15T12:52:57.957Z,40.11